Time;durP1;ratioP1;P1;durP2;ratioP2;P2;SDS_P1;SDS_P2;PMS_P1;PMS_P2;Temp;Humidity;BMP_temperature;BMP_pressure;BME280_temperature;BME280_humidity;BME280_pressure;Samples;Min_cycle;Max_cycle;Signal;HPM_P1;HPM_P2
2024/03/23 00:00:30;;;;;;;20.50;6.60;;;11.10;99.90;;;11.45;80.69;101019.34;5010733;28;20042;-62
2024/03/23 00:03:03;;;;;;;19.13;6.72;;;11.10;99.90;;;11.51;80.71;101017.56;5012235;28;20541;-63
2024/03/23 00:05:37;;;;;;;18.83;6.93;;;11.20;99.90;;;11.56;81.04;101023.69;4991099;28;20038;-62
2024/03/23 00:08:10;;;;;;;23.05;6.80;;;11.30;99.90;;;11.59;81.23;101025.47;4991044;28;20056;-62
2024/03/23 00:10:41;;;;;;;18.17;6.50;;;11.30;99.90;;;11.62;81.90;101018.38;4991102;28;20468;-64
2024/03/23 00:13:14;;;;;;;20.98;7.13;;;11.30;99.90;;;11.65;82.19;101021.00;4991006;28;20042;-63
2024/03/23 00:15:46;;;;;;;15.70;6.65;;;11.40;99.90;;;11.67;82.64;101021.88;4991117;28;20054;-63
2024/03/23 00:18:23;;;;;;;22.85;7.55;;;11.40;99.90;;;11.59;83.57;101018.38;4991371;28;20049;-62
2024/03/23 00:20:57;;;;;;;22.05;8.43;;;11.30;99.90;;;11.65;84.42;101018.38;4991557;28;20403;-62
2024/03/23 00:23:30;;;;;;;25.63;8.70;;;11.40;99.90;;;11.67;85.12;101010.44;4991289;28;20073;-62
2024/03/23 00:26:02;;;;;;;23.70;8.48;;;11.40;99.90;;;11.71;85.38;101013.03;4990684;28;20093;-63
2024/03/23 00:28:35;;;;;;;23.55;8.88;;;11.40;99.90;;;11.73;85.94;101010.34;4990917;28;20404;-62
2024/03/23 00:31:06;;;;;;;20.67;8.15;;;11.40;99.90;;;11.76;86.10;101013.00;4991228;28;20054;-62
2024/03/23 00:33:39;;;;;;;25.48;8.88;;;11.40;99.90;;;11.74;86.31;101006.84;4990857;28;20435;-63
2024/03/23 00:36:11;;;;;;;25.52;8.57;;;11.40;99.90;;;11.74;86.66;101002.44;4990591;28;20468;-64
2024/03/23 00:38:44;;;;;;;26.77;9.02;;;11.40;99.90;;;11.79;86.80;101002.38;4990707;28;20058;-63
2024/03/23 00:41:16;;;;;;;24.48;8.27;;;11.50;99.90;;;11.82;87.19;100998.81;4990515;28;20046;-61
2024/03/23 00:43:49;;;;;;;21.90;9.07;;;11.50;99.90;;;11.49;89.24;100995.50;4990387;28;20038;-61
2024/03/23 00:46:21;;;;;;;23.63;8.50;;;11.20;99.90;;;11.39;90.75;100983.19;4990170;28;20146;-64
2024/03/23 00:48:54;;;;;;;24.83;9.23;;;11.10;99.90;;;11.24;91.63;100983.28;4990197;28;20045;-64
2024/03/23 00:51:26;;;;;;;24.38;9.13;;;11.00;99.90;;;11.28;92.04;100984.16;4990099;28;20196;-63
2024/03/23 00:53:55;;;;;;;22.60;7.40;;;10.90;99.90;;;11.08;91.74;100975.41;4990158;28;20090;-63
2024/03/23 00:56:22;;;;;;;28.67;7.80;;;10.70;99.90;;;10.77;89.72;100975.56;4990178;28;20061;-63
2024/03/23 00:58:49;;;;;;;24.35;7.38;;;10.50;99.90;;;10.75;89.03;100971.13;4989899;28;20377;-62
2024/03/23 01:01:16;;;;;;;25.90;7.43;;;10.40;99.90;;;10.67;88.04;100965.88;4973579;28;20156;-62
2024/03/23 01:03:43;;;;;;;19.73;6.50;;;10.40;99.90;;;10.59;86.99;100959.72;4995505;28;20622;-62
2024/03/23 01:06:10;;;;;;;15.25;6.32;;;10.30;99.90;;;10.52;86.50;100954.47;5009532;28;20470;-64
2024/03/23 01:08:37;;;;;;;21.02;6.43;;;10.20;99.90;;;10.40;85.64;100958.03;4993201;28;20136;-61
2024/03/23 01:11:05;;;;;;;26.27;6.93;;;10.10;99.90;;;10.36;84.48;100956.28;5009357;28;20065;-66
2024/03/23 01:13:32;;;;;;;17.45;5.82;;;10.10;99.90;;;10.31;84.93;100955.41;5009616;28;20058;-61
2024/03/23 01:15:59;;;;;;;16.38;6.45;;;10.00;99.90;;;10.26;84.94;100953.66;5009674;28;20044;-64
2024/03/23 01:18:27;;;;;;;23.80;6.47;;;10.00;99.90;;;10.25;84.93;100950.13;5009684;28;20049;-62
2024/03/23 01:20:53;;;;;;;19.65;6.07;;;10.00;99.90;;;10.26;84.90;100951.03;5009443;28;20395;-62
2024/03/23 01:23:21;;;;;;;20.88;6.47;;;9.90;99.90;;;10.15;85.27;100939.56;5009197;28;20515;-62
2024/03/23 01:25:53;;;;;;;25.50;7.38;;;9.90;99.90;;;10.03;85.05;100908.72;5008781;28;20038;-62
2024/03/23 01:28:22;;;;;;;24.50;6.75;;;9.90;99.90;;;10.16;85.41;100958.09;5008671;28;20042;-61
2024/03/23 01:30:48;;;;;;;21.52;6.25;;;9.80;99.90;;;10.04;85.66;100952.78;5009424;28;20056;-62
2024/03/23 01:33:16;;;;;;;20.65;6.40;;;9.80;99.90;;;9.99;86.16;100958.06;5009359;28;20393;-62
2024/03/23 01:35:42;;;;;;;20.17;6.55;;;9.70;99.90;;;10.08;85.63;100951.88;5009684;28;20049;-62
2024/03/23 01:38:09;;;;;;;22.80;6.68;;;9.80;99.90;;;10.09;86.15;100948.34;5009491;28;20042;-63
2024/03/23 01:40:36;;;;;;;18.55;6.22;;;9.70;99.90;;;10.02;85.81;100946.59;5009248;28;20118;-62
2024/03/23 01:43:07;;;;;;;15.57;5.97;;;9.70;99.90;;;10.03;85.71;100951.88;5009218;28;20124;-64
2024/03/23 01:45:35;;;;;;;23.30;6.82;;;9.80;99.90;;;9.99;85.37;100933.38;5009339;28;20058;-62
2024/03/23 01:48:03;;;;;;;19.15;6.95;;;9.70;99.90;;;10.04;85.59;100943.06;5009034;28;20050;-64
2024/03/23 01:50:33;;;;;;;22.23;6.30;;;9.70;99.90;;;9.90;84.98;100938.69;5008988;28;20042;-62
2024/03/23 01:53:05;;;;;;;22.97;6.57;;;9.70;99.90;;;9.82;85.36;100941.34;5009194;28;20499;-63
2024/03/23 01:55:32;;;;;;;20.98;6.43;;;9.60;99.90;;;9.91;85.27;100929.91;5008964;28;20312;-62
2024/03/23 01:57:59;;;;;;;18.58;6.50;;;9.60;99.90;;;9.89;85.45;100943.06;5009291;28;20123;-62
2024/03/23 02:00:27;;;;;;;21.83;6.35;;;9.60;99.90;;;9.91;85.99;100936.03;5009117;28;20045;-63
2024/03/23 02:02:56;;;;;;;21.13;6.40;;;9.60;99.90;;;9.84;85.54;100934.28;5008996;28;20057;-65
2024/03/23 02:05:23;;;;;;;19.92;6.72;;;9.50;99.90;;;9.79;85.80;100936.03;4992421;28;20054;-63
2024/03/23 02:07:51;;;;;;;22.30;6.22;;;9.50;99.90;;;9.85;85.59;100932.53;5008992;28;20042;-63
2024/03/23 02:10:18;;;;;;;27.00;6.68;;;9.60;99.90;;;9.02;86.51;100813.69;4992698;28;20046;-62
2024/03/23 02:12:45;;;;;;;24.30;6.40;;;9.40;99.90;;;9.07;86.56;100835.72;5009041;28;20062;-63
2024/03/23 02:15:12;;;;;;;23.30;6.22;;;9.40;99.90;;;9.71;86.69;100923.72;4992653;28;20108;-63
2024/03/23 02:17:39;;;;;;;25.98;6.72;;;9.40;99.90;;;9.72;85.84;100923.72;5008831;28;20057;-62
2024/03/23 02:20:08;;;;;;;24.33;6.35;;;9.40;99.90;;;9.78;85.87;100914.91;5008716;28;20060;-65
2024/03/23 02:22:38;;;;;;;22.17;6.32;;;9.40;99.90;;;9.83;86.31;100915.81;5009027;28;20052;-62
2024/03/23 02:25:07;;;;;;;24.45;6.03;;;9.50;99.90;;;9.62;86.00;100892.06;5009002;28;20038;-62
2024/03/23 02:27:35;;;;;;;26.70;6.20;;;9.50;99.90;;;9.73;86.15;100904.38;5009160;28;20480;-62
2024/03/23 02:30:02;;;;;;;21.45;5.95;;;9.50;99.90;;;9.79;85.59;100904.34;5009261;28;20038;-63
2024/03/23 02:32:29;;;;;;;21.48;6.13;;;9.50;99.90;;;9.80;85.56;100906.13;5009383;28;20041;-63
2024/03/23 02:34:56;;;;;;;18.40;5.95;;;9.50;99.90;;;9.76;85.91;100900.81;5010342;28;20042;-62
2024/03/23 02:37:23;;;;;;;21.58;5.82;;;9.50;99.90;;;9.71;85.27;100906.13;5011045;28;20057;-62
2024/03/23 02:39:50;;;;;;;19.10;6.03;;;9.40;99.90;;;9.75;85.15;100904.38;5013871;28;20045;-63
2024/03/23 02:42:19;;;;;;;17.83;5.60;;;9.50;99.90;;;9.72;83.58;100897.31;5013321;28;20046;-63
2024/03/23 02:44:45;;;;;;;20.38;6.07;;;9.40;99.90;;;9.71;83.10;100892.03;5014081;28;20057;-62
2024/03/23 02:47:13;;;;;;;18.15;5.88;;;9.50;99.90;;;9.84;82.87;100896.41;5013812;28;20046;-62
2024/03/23 02:49:39;;;;;;;21.75;6.53;;;9.50;99.90;;;9.97;82.49;100892.88;5012713;28;20045;-62
2024/03/23 02:52:06;;;;;;;17.90;6.25;;;9.60;99.90;;;9.93;82.61;100902.56;5012167;28;20421;-61
2024/03/23 02:54:33;;;;;;;23.55;6.25;;;9.70;99.90;;;9.86;82.56;100882.34;5013132;28;20096;-62
2024/03/23 02:57:00;;;;;;;17.88;5.60;;;9.70;99.90;;;9.92;82.61;100898.19;5013874;28;20049;-62
2024/03/23 02:59:28;;;;;;;17.35;5.80;;;9.60;99.90;;;9.92;81.66;100889.38;5013803;28;20046;-62
2024/03/23 03:01:55;;;;;;;16.85;5.60;;;9.70;99.90;;;10.01;81.32;100890.22;5014112;28;20049;-63
2024/03/23 03:04:22;;;;;;;20.75;5.78;;;9.80;99.90;;;9.94;81.14;100885.84;5012802;28;20104;-62
2024/03/23 03:06:50;;;;;;;20.67;6.07;;;9.70;99.90;;;9.60;81.98;100880.59;5013805;28;20392;-62
2024/03/23 03:09:16;;;;;;;21.40;6.47;;;9.50;99.90;;;9.59;81.86;100884.13;5013896;28;20038;-62
2024/03/23 03:11:44;;;;;;;18.35;6.18;;;9.40;99.90;;;9.56;81.54;100882.34;5013774;28;20050;-62
2024/03/23 03:14:10;;;;;;;18.75;6.10;;;9.40;99.90;;;9.29;80.94;100842.75;5013536;28;20042;-62
2024/03/23 03:16:39;;;;;;;18.58;5.25;;;9.30;99.90;;;9.50;80.70;100882.38;5012944;28;20042;-62
2024/03/23 03:19:06;;;;;;;14.50;5.32;;;9.30;99.90;;;9.32;80.48;100853.31;5013686;28;20439;-61
2024/03/23 03:21:33;;;;;;;15.50;5.38;;;9.30;99.90;;;8.59;80.68;100740.72;5013249;28;20042;-62
2024/03/23 03:24:00;;;;;;;16.67;5.32;;;9.20;99.90;;;9.30;81.85;100881.47;5013158;28;20495;-62
2024/03/23 03:26:27;;;;;;;20.30;5.75;;;9.10;99.90;;;9.32;81.95;100874.44;5013159;28;20060;-62
2024/03/23 03:28:54;;;;;;;22.02;6.03;;;9.10;99.90;;;9.51;81.60;100881.47;4996655;28;20053;-62
2024/03/23 03:31:22;;;;;;;22.27;6.45;;;9.30;99.90;;;9.47;82.46;100873.53;5013080;28;20136;-62
2024/03/23 03:33:50;;;;;;;17.77;6.15;;;9.30;99.90;;;9.34;82.70;100870.03;5013100;28;20042;-62
2024/03/23 03:36:18;;;;;;;18.70;6.32;;;9.20;99.90;;;9.20;82.82;100850.66;5013639;28;20065;-61
2024/03/23 03:38:44;;;;;;;15.20;5.45;;;9.20;99.90;;;9.28;81.57;100872.66;5013012;28;20046;-62
2024/03/23 03:41:12;;;;;;;24.38;6.35;;;9.10;99.90;;;9.27;81.40;100870.88;5013187;28;20057;-62
2024/03/23 03:43:38;;;;;;;12.98;5.20;;;9.10;99.90;;;9.29;81.19;100863.00;5013081;28;20054;-62
2024/03/23 03:46:07;;;;;;;15.73;5.55;;;9.10;99.90;;;9.27;81.11;100856.84;5012549;28;20042;-63
2024/03/23 03:48:34;;;;;;;23.58;6.28;;;9.10;99.90;;;9.41;80.88;100862.97;5012483;28;20099;-64
2024/03/23 03:51:03;;;;;;;16.65;5.95;;;9.20;99.90;;;9.33;81.30;100860.34;5010139;28;20038;-64
2024/03/23 03:53:30;;;;;;;21.33;6.03;;;9.20;99.90;;;9.24;82.48;100849.78;5011113;28;20045;-64
2024/03/23 03:55:57;;;;;;;19.67;5.30;;;9.00;99.90;;;9.28;82.69;100846.28;5010844;28;20050;-64
2024/03/23 03:58:24;;;;;;;22.00;5.55;;;9.10;99.90;;;9.35;82.34;100853.31;5010880;28;20041;-62
2024/03/23 04:00:51;;;;;;;17.38;5.63;;;9.10;99.90;;;9.26;82.36;100844.50;5011294;28;20434;-64
2024/03/23 04:03:18;;;;;;;20.00;6.20;;;9.10;99.90;;;9.28;83.15;100838.34;5013855;28;20523;-62
2024/03/23 04:05:52;;;;;;;19.45;6.47;;;9.00;99.90;;;9.39;82.73;100843.66;5015803;28;20037;-61
2024/03/23 04:08:20;;;;;;;20.95;6.22;;;9.10;99.90;;;8.64;82.66;100709.94;5015881;28;20045;-62
2024/03/23 04:10:48;;;;;;;23.50;6.47;;;9.20;99.90;;;9.38;82.60;100836.59;4999473;28;20053;-63
2024/03/23 04:13:14;;;;;;;22.83;6.65;;;9.20;99.90;;;9.46;81.61;100840.13;5015594;28;20445;-63
2024/03/23 04:15:42;;;;;;;17.88;5.57;;;9.30;99.90;;;9.57;81.51;100843.63;5015563;28;20402;-63
2024/03/23 04:18:09;;;;;;;18.60;5.70;;;9.30;99.90;;;9.52;81.28;100840.13;5015542;28;20442;-63
2024/03/23 04:20:36;;;;;;;20.10;6.40;;;9.30;99.90;;;9.37;81.97;100835.72;5015446;28;20046;-63
2024/03/23 04:23:03;;;;;;;19.48;6.07;;;9.30;99.90;;;9.51;81.49;100844.50;5015359;28;20050;-63
2024/03/23 04:25:32;;;;;;;18.67;6.18;;;9.30;99.90;;;8.73;81.81;100713.47;5015383;28;20045;-63
2024/03/23 04:27:59;;;;;;;20.40;5.82;;;9.30;99.90;;;9.43;81.63;100840.09;5031849;28;20419;-63
2024/03/23 04:30:29;;;;;;;24.63;6.15;;;9.30;99.90;;;9.56;81.82;100841.88;5015382;28;20069;-62
2024/03/23 04:32:56;;;;;;;15.65;5.90;;;9.30;99.90;;;9.62;81.34;100842.72;5015921;28;20399;-61
2024/03/23 04:35:25;;;;;;;15.35;5.47;;;9.40;99.90;;;9.63;81.26;100844.50;4999439;28;20871;-62
2024/03/23 04:37:53;;;;;;;15.10;6.32;;;9.40;99.90;;;9.67;81.74;100837.47;5015530;28;20046;-62
2024/03/23 04:40:20;;;;;;;16.60;5.57;;;9.40;99.90;;;9.72;81.44;100841.84;5015155;28;20053;-62
2024/03/23 04:42:49;;;;;;;19.75;6.60;;;9.50;99.90;;;9.50;82.13;100832.22;5015739;28;20076;-62
2024/03/23 04:45:16;;;;;;;21.40;6.07;;;9.40;99.90;;;9.57;82.90;100843.63;4999418;28;20041;-62
2024/03/23 04:47:44;;;;;;;21.20;6.60;;;9.30;99.90;;;9.69;82.52;100839.22;5015818;28;20049;-61
2024/03/23 04:50:11;;;;;;;20.58;6.22;;;9.40;99.90;;;9.74;82.52;100848.00;4999401;28;20060;-62
2024/03/23 04:52:39;;;;;;;20.63;5.95;;;9.50;99.90;;;9.73;82.90;100843.63;5032226;28;20095;-62
2024/03/23 04:55:11;;;;;;;19.63;6.30;;;9.50;99.90;;;9.72;82.90;100841.84;5016228;28;20049;-62
2024/03/23 04:57:38;;;;;;;23.77;6.60;;;9.50;99.90;;;9.71;83.48;100847.13;5015477;28;20041;-61
2024/03/23 05:00:16;;;;;;;19.20;6.00;;;9.50;99.90;;;9.78;83.60;100846.25;4999325;28;20049;-62
2024/03/23 05:02:45;;;;;;;21.20;6.47;;;9.50;99.90;;;9.63;83.86;100831.31;5015741;28;20053;-62
2024/03/23 05:05:12;;;;;;;21.30;6.60;;;9.50;99.90;;;8.86;84.42;100707.34;5015314;28;20072;-62
2024/03/23 05:07:39;;;;;;;20.88;6.63;;;9.40;99.90;;;9.53;84.31;100839.22;5015213;28;20041;-62
2024/03/23 05:10:10;;;;;;;25.02;6.70;;;9.40;99.90;;;9.50;83.88;100836.59;4999033;28;20079;-62
2024/03/23 05:12:36;;;;;;;21.98;6.97;;;9.30;99.90;;;9.54;83.03;100827.81;5015299;28;20478;-62
2024/03/23 05:15:04;;;;;;;16.52;5.90;;;9.30;99.90;;;9.65;82.29;100842.75;5015465;28;20427;-62
2024/03/23 05:17:33;;;;;;;18.83;5.80;;;9.50;99.90;;;9.44;82.18;100842.78;5015158;28;20045;-62
2024/03/23 05:20:00;;;;;;;17.55;6.45;;;9.30;99.90;;;9.47;82.34;100848.03;5015658;28;20041;-62
2024/03/23 05:22:27;;;;;;;18.13;6.03;;;9.30;99.90;;;9.47;83.13;100847.16;5015046;28;20387;-64
2024/03/23 05:24:54;;;;;;;23.48;6.53;;;9.30;99.90;;;9.33;84.02;100841.88;5015428;28;20438;-62
2024/03/23 05:27:21;;;;;;;17.33;6.28;;;9.20;99.90;;;9.43;83.83;100846.28;5015043;28;20049;-62
2024/03/23 05:29:48;;;;;;;14.40;6.03;;;9.20;99.90;;;9.28;83.91;100846.28;5015004;28;20033;-62
2024/03/23 05:32:15;;;;;;;23.85;6.68;;;9.10;99.90;;;9.17;83.98;100836.59;5015273;28;20399;-62
2024/03/23 05:34:45;;;;;;;14.82;5.65;;;9.00;99.90;;;8.84;84.67;100811.06;5014984;28;20049;-62
2024/03/23 05:37:11;;;;;;;19.98;6.72;;;8.90;99.90;;;9.03;85.67;100839.22;5014996;28;20042;-62
2024/03/23 05:39:38;;;;;;;17.45;6.13;;;8.90;99.90;;;8.94;85.48;100837.44;5014928;28;20091;-62
2024/03/23 05:42:05;;;;;;;17.95;6.03;;;8.80;99.90;;;8.90;85.91;100838.31;5015713;28;20053;-62
2024/03/23 05:44:33;;;;;;;19.15;6.53;;;8.70;99.90;;;8.93;86.33;100833.06;5014886;28;20120;-61
2024/03/23 05:46:59;;;;;;;15.60;6.03;;;8.70;99.90;;;9.05;86.32;100840.09;5014820;28;20050;-63
2024/03/23 05:49:27;;;;;;;21.40;6.25;;;8.80;99.90;;;9.21;85.59;100833.97;4998544;28;20045;-61
2024/03/23 05:51:55;;;;;;;18.20;5.50;;;9.00;99.90;;;9.27;85.91;100836.59;5030654;28;20049;-64
2024/03/23 05:54:22;;;;;;;17.38;5.70;;;9.10;99.90;;;9.32;85.40;100847.16;5014844;28;20092;-62
2024/03/23 05:56:48;;;;;;;19.45;5.97;;;9.10;99.90;;;9.17;85.68;100837.47;5014763;28;20112;-61
2024/03/23 05:59:16;;;;;;;21.77;6.75;;;9.00;99.90;;;9.13;85.39;100840.09;5015274;28;20049;-62
2024/03/23 06:01:42;;;;;;;23.98;7.65;;;8.90;99.90;;;9.15;84.79;100831.31;5014760;28;20049;-62
2024/03/23 06:04:09;;;;;;;22.08;6.13;;;9.00;99.90;;;9.11;84.97;100826.91;5014604;28;20072;-61
2024/03/23 06:06:36;;;;;;;24.95;6.80;;;8.90;99.90;;;8.38;84.90;100695.88;5014753;28;20049;-61
2024/03/23 06:09:04;;;;;;;20.13;6.15;;;9.00;99.90;;;9.03;85.07;100824.28;5014528;28;20060;-62
2024/03/23 06:11:31;;;;;;;20.77;5.85;;;8.90;99.90;;;9.02;84.83;100826.88;5014676;28;20045;-62
2024/03/23 06:13:58;;;;;;;15.60;5.38;;;8.90;99.90;;;8.98;84.14;100836.56;5017355;28;20053;-62
2024/03/23 06:16:24;;;;;;;22.75;6.53;;;8.80;99.90;;;8.89;84.69;100841.84;5018462;28;20091;-62
2024/03/23 06:18:52;;;;;;;17.33;5.60;;;8.70;99.90;;;8.94;84.65;100839.22;5018710;28;20088;-62
2024/03/23 06:21:18;;;;;;;21.33;5.70;;;8.80;99.90;;;8.87;85.63;100835.69;5018883;28;20049;-62
2024/03/23 06:23:50;;;;;;;14.32;6.03;;;8.70;99.90;;;8.97;85.54;100844.47;5002159;28;20379;-61
2024/03/23 06:26:19;;;;;;;24.40;6.10;;;8.80;99.90;;;9.22;85.30;100841.00;5018281;28;20038;-62
2024/03/23 06:28:46;;;;;;;14.65;5.88;;;9.00;99.90;;;9.40;84.64;100855.97;5018389;28;20045;-62
2024/03/23 06:31:13;;;;;;;17.63;5.97;;;9.20;99.90;;;9.43;83.25;100842.75;5018096;28;20060;-61
2024/03/23 06:33:41;;;;;;;18.70;6.07;;;9.30;99.90;;;9.54;83.01;100841.84;5018684;28;20053;-62
2024/03/23 06:36:10;;;;;;;19.45;5.85;;;9.40;99.90;;;9.54;81.87;100843.63;5001829;28;20091;-62
2024/03/23 06:38:38;;;;;;;15.75;5.32;;;9.40;99.90;;;9.58;81.02;100840.13;5018029;28;20041;-63
2024/03/23 06:41:05;;;;;;;20.38;5.63;;;9.40;99.90;;;9.46;81.17;100843.66;5017891;28;20045;-62
2024/03/23 06:43:34;;;;;;;15.95;5.55;;;9.30;99.90;;;9.61;82.16;100841.00;5017979;28;20498;-61
2024/03/23 06:46:03;;;;;;;15.23;6.10;;;9.40;99.90;;;9.63;83.12;100839.22;5017783;28;20037;-61
2024/03/23 06:48:31;;;;;;;17.88;6.40;;;9.50;99.90;;;9.65;83.46;100869.16;5017777;28;20048;-62
2024/03/23 06:50:58;;;;;;;22.55;6.40;;;9.50;99.90;;;9.58;83.36;100838.34;5017775;28;20119;-64
2024/03/23 06:53:25;;;;;;;21.27;5.95;;;9.40;99.90;;;9.56;83.35;100837.47;5017972;28;20487;-62
2024/03/23 06:55:53;;;;;;;18.58;6.18;;;9.40;99.90;;;9.86;82.89;100842.72;5017720;28;20098;-62
2024/03/23 06:58:21;;;;;;;19.25;6.45;;;9.60;99.90;;;9.74;83.28;100842.72;5018132;28;20050;-62
2024/03/23 07:00:49;;;;;;;21.30;6.40;;;9.60;99.90;;;9.58;82.72;100840.13;5017576;28;20478;-63
2024/03/23 07:03:17;;;;;;;21.20;5.95;;;9.50;99.90;;;9.58;81.83;100842.75;5017491;28;20740;-62
2024/03/23 07:05:43;;;;;;;22.13;6.22;;;9.40;99.90;;;9.50;82.09;100833.97;5017499;28;20075;-62
2024/03/23 07:08:11;;;;;;;26.45;6.88;;;9.40;99.90;;;9.64;82.82;100848.91;5017872;28;20038;-62
2024/03/23 07:10:40;;;;;;;23.33;6.05;;;9.50;99.90;;;9.61;82.48;100842.75;5017306;28;20037;-62
2024/03/23 07:13:07;;;;;;;19.65;6.15;;;9.50;99.90;;;9.60;82.04;100839.22;5017411;28;20104;-63
2024/03/23 07:15:34;;;;;;;16.80;5.80;;;9.40;99.90;;;9.44;82.05;100845.41;5017223;28;20049;-63
2024/03/23 07:18:02;;;;;;;20.48;5.45;;;9.30;99.90;;;9.59;82.81;100844.50;5017212;28;20113;-63
2024/03/23 07:20:31;;;;;;;20.38;6.15;;;9.30;99.90;;;9.49;82.53;100858.59;5033518;28;20553;-62
2024/03/23 07:22:58;;;;;;;19.38;5.95;;;9.30;99.90;;;9.55;81.94;100850.66;5017147;28;20049;-62
2024/03/23 07:25:26;;;;;;;20.75;5.60;;;9.30;99.90;;;9.31;82.43;100848.03;5016911;28;20426;-61
2024/03/23 07:27:54;;;;;;;17.88;5.55;;;9.10;99.90;;;9.19;83.15;100830.44;5016935;28;20052;-62
2024/03/23 07:30:21;;;;;;;26.38;6.53;;;9.10;99.90;;;9.42;83.52;100843.63;5016915;28;20053;-61
2024/03/23 07:32:48;;;;;;;22.08;6.03;;;9.20;99.90;;;9.39;82.53;100854.22;5016940;28;20045;-63
2024/03/23 07:35:16;;;;;;;24.58;6.65;;;9.20;99.90;;;9.14;82.56;100834.81;5016897;28;20045;-64
2024/03/23 07:37:44;;;;;;;21.85;6.53;;;9.00;99.90;;;9.17;82.54;100842.75;5016914;28;20041;-63
2024/03/23 07:40:12;;;;;;;21.20;6.32;;;9.00;99.90;;;9.21;83.19;100822.53;5016796;28;20541;-62
2024/03/23 07:42:39;;;;;;;18.98;6.43;;;9.10;99.90;;;9.29;82.18;100841.88;5017007;28;20099;-63
2024/03/23 07:45:09;;;;;;;17.08;5.40;;;9.20;99.90;;;9.27;81.82;100844.50;5033447;28;20060;-64
2024/03/23 07:47:36;;;;;;;18.55;5.45;;;9.10;99.90;;;9.38;81.66;100839.25;5017195;28;20038;-64
2024/03/23 07:50:03;;;;;;;18.15;5.72;;;9.20;99.90;;;9.40;81.52;100840.13;5016859;28;20060;-63
2024/03/23 07:52:32;;;;;;;16.08;5.60;;;9.20;99.90;;;9.21;82.09;100838.34;5000287;28;20061;-64
2024/03/23 07:54:58;;;;;;;20.40;5.97;;;9.10;99.90;;;9.30;82.52;100835.72;5016994;28;20046;-65
2024/03/23 07:57:25;;;;;;;16.83;6.10;;;9.10;99.90;;;9.32;82.29;100829.56;5016632;28;20072;-63
2024/03/23 07:59:52;;;;;;;18.20;6.15;;;9.20;99.90;;;9.50;81.72;100841.88;5016858;28;20060;-64
2024/03/23 08:02:19;;;;;;;18.95;5.68;;;9.30;99.90;;;8.82;81.03;100694.16;5016944;28;20044;-62
2024/03/23 08:04:45;;;;;;;17.52;6.22;;;9.50;99.90;;;9.77;80.95;100834.81;5000023;28;20053;-64
2024/03/23 08:07:13;;;;;;;20.90;6.22;;;9.60;99.90;;;9.98;80.71;100840.03;5016234;28;20041;-62
2024/03/23 08:09:41;;;;;;;22.70;6.55;;;9.80;99.90;;;9.79;79.49;100835.66;5016480;28;20041;-62
2024/03/23 08:12:09;;;;;;;18.42;6.05;;;9.70;99.90;;;9.57;77.71;100830.41;5016177;28;20041;-63
2024/03/23 08:14:35;;;;;;;21.73;6.18;;;9.50;99.90;;;9.71;78.01;100844.50;5016236;28;20045;-62
2024/03/23 08:17:03;;;;;;;20.95;6.07;;;9.50;99.90;;;9.93;78.43;100839.16;5016458;28;20045;-66
2024/03/23 08:19:30;;;;;;;23.65;6.60;;;9.70;99.90;;;9.97;78.14;100842.66;5015965;28;20049;-64
2024/03/23 08:21:57;;;;;;;16.77;5.65;;;9.80;99.90;;;10.13;77.37;100830.31;5016266;28;20081;-63
2024/03/23 08:24:23;;;;;;;21.73;6.15;;;10.00;99.90;;;10.11;76.70;100838.25;5015965;28;20522;-64
2024/03/23 08:26:52;;;;;;;19.13;5.80;;;9.90;99.90;;;10.17;75.83;100834.72;5016124;28;20053;-64
2024/03/23 08:29:19;;;;;;;21.45;5.90;;;10.00;99.90;;;10.07;75.34;100835.59;5016147;28;20128;-64
2024/03/23 08:31:46;;;;;;;20.00;5.97;;;9.90;99.90;;;9.99;76.18;100825.94;5016261;28;20041;-64
2024/03/23 08:34:12;;;;;;;20.42;6.40;;;9.80;99.90;;;9.83;76.91;100808.34;5015852;28;20045;-64
2024/03/23 08:36:40;;;;;;;21.75;7.13;;;9.80;99.90;;;10.00;76.93;100829.47;5015688;28;20065;-64
2024/03/23 08:39:07;;;;;;;22.05;6.45;;;9.80;99.90;;;9.82;76.19;100833.03;5015615;28;20412;-64
2024/03/23 08:41:34;;;;;;;26.05;7.47;;;9.70;99.90;;;9.82;76.73;100825.09;5015777;28;20578;-64
2024/03/23 08:44:02;;;;;;;16.75;5.68;;;9.70;99.90;;;9.87;76.81;100830.38;5015524;28;20041;-65
2024/03/23 08:46:29;;;;;;;21.95;6.03;;;9.70;99.90;;;9.92;76.94;100832.13;5013806;28;20395;-63
2024/03/23 08:48:56;;;;;;;18.15;5.95;;;9.70;99.90;;;9.84;76.15;100833.03;4997418;28;20049;-66
2024/03/23 08:51:23;;;;;;;21.38;5.75;;;9.70;99.90;;;9.64;75.99;100834.84;5013680;28;20053;-63
2024/03/23 08:53:50;;;;;;;16.95;5.32;;;9.50;99.90;;;9.79;76.67;100846.22;5013760;28;20045;-65
2024/03/23 08:56:17;;;;;;;22.60;6.20;;;9.60;99.90;;;9.84;77.34;100833.91;5013773;28;20077;-63
2024/03/23 08:58:44;;;;;;;17.00;6.57;;;9.60;99.90;;;10.22;77.88;100841.75;5013382;28;20056;-64
2024/03/23 09:01:13;;;;;;;20.65;6.00;;;10.00;99.90;;;10.33;76.50;100797.66;5013592;28;20056;-64
2024/03/23 09:03:41;;;;;;;22.38;6.70;;;10.40;99.90;;;11.09;75.09;100840.41;5013301;28;20068;-64
2024/03/23 09:06:08;;;;;;;23.38;5.68;;;10.80;99.90;;;10.97;72.83;100835.22;5013682;28;20099;-63
2024/03/23 09:08:36;;;;;;;17.20;5.80;;;10.90;99.90;;;10.64;71.83;100832.75;5013090;28;20430;-63
2024/03/23 09:11:05;;;;;;;20.23;5.40;;;10.60;99.90;;;10.63;72.28;100831.88;5013563;28;20034;-63
2024/03/23 09:13:34;;;;;;;18.27;6.32;;;10.50;99.90;;;10.88;73.20;100837.91;5013594;28;20071;-65
2024/03/23 09:16:00;;;;;;;25.52;5.80;;;10.60;99.90;;;10.85;71.37;100835.28;5013757;28;20479;-64
2024/03/23 09:18:32;;;;;;;20.25;5.95;;;10.70;99.90;;;10.87;71.61;100858.22;5013405;28;20092;-64
2024/03/23 09:20:59;;;;;;;17.13;5.45;;;10.70;99.90;;;11.40;72.19;100849.00;5013343;28;20095;-63
2024/03/23 09:23:26;;;;;;;13.90;5.80;;;11.10;99.90;;;11.48;70.57;100825.97;5013250;28;20045;-65
2024/03/23 09:25:53;;;;;;;15.13;5.63;;;11.40;99.90;;;11.55;69.14;100823.28;4997038;28;20045;-63
2024/03/23 09:28:20;;;;;;;17.10;5.20;;;11.50;99.90;;;11.51;67.75;100840.09;5013105;28;20099;-64
2024/03/23 09:30:47;;;;;;;16.92;5.47;;;11.50;99.90;;;11.64;67.96;100847.03;5029390;28;20048;-63
2024/03/23 09:33:14;;;;;;;17.65;5.60;;;11.50;99.90;;;11.58;67.07;100835.59;5013002;28;20041;-64
2024/03/23 09:35:44;;;;;;;16.90;6.00;;;11.50;99.90;;;11.91;68.69;100818.50;5012980;28;20492;-63
2024/03/23 09:38:12;;;;;;;18.20;5.20;;;11.80;99.90;;;11.95;66.65;100847.63;5012867;28;20041;-64
2024/03/23 09:40:41;;;;;;;19.40;5.45;;;11.80;99.90;;;11.72;66.76;100844.34;5013358;28;20056;-64
2024/03/23 09:43:10;;;;;;;18.85;5.85;;;11.60;99.90;;;11.53;67.86;100848.00;5012987;28;20048;-65
2024/03/23 09:45:40;;;;;;;17.40;5.43;;;11.40;99.90;;;11.48;68.07;100840.09;5013178;28;20094;-63
2024/03/23 09:48:10;;;;;;;23.23;6.15;;;11.30;99.90;;;11.26;69.27;100838.53;4998301;28;20056;-63
2024/03/23 09:50:37;;;;;;;16.42;5.30;;;11.10;99.90;;;10.80;71.12;100852.97;5017143;28;20049;-64
2024/03/23 09:53:08;;;;;;;13.38;5.68;;;10.70;99.90;;;10.75;71.71;100834.47;5017596;28;20053;-65
2024/03/23 09:55:35;;;;;;;16.08;5.70;;;10.60;99.90;;;10.84;71.51;100838.78;5016846;28;20068;-65
2024/03/23 09:58:04;;;;;;;13.27;5.03;;;10.60;99.90;;;10.89;72.06;100837.03;5016882;28;20124;-65
2024/03/23 10:00:31;;;;;;;17.52;5.40;;;10.70;99.90;;;9.46;72.25;100677.34;5016873;28;20099;-66
2024/03/23 10:03:01;;;;;;;15.90;5.20;;;10.30;99.90;;;10.36;73.13;100834.66;5016821;28;20049;-65
2024/03/23 10:05:31;;;;;;;20.20;6.32;;;10.20;99.90;;;10.07;73.96;100825.03;5016847;28;20057;-65
2024/03/23 10:07:58;;;;;;;16.13;5.68;;;9.90;99.90;;;10.32;74.66;100822.31;5016856;28;20042;-64
2024/03/23 10:10:27;;;;;;;13.63;5.65;;;10.10;99.90;;;10.78;73.96;100826.50;5000108;28;20056;-63
2024/03/23 10:12:54;;;;;;;21.13;6.03;;;10.50;99.90;;;11.36;73.62;100829.59;5016496;28;20041;-64
2024/03/23 10:15:22;;;;;;;11.40;5.05;;;11.10;99.90;;;11.23;70.28;100822.66;5016679;28;20049;-64
2024/03/23 10:17:50;;;;;;;14.48;5.38;;;11.20;99.90;;;11.16;69.87;100823.59;5016312;28;20041;-66